CYPR Airport Information

Runway Information
Runway 13 Length 6000 ft width 200 ft
Elevation 94 ft Threshold 0 ft Heading 152
Runway 31 Length 6000 ft Width 200 ft
Elevation 116 ft Threshold 0 ft Heading 332
Airport Frequencies
Type A/G Name RUPERT RDO Frequency 122.5 MHZ
Type CNTR Name VANCOUVER Frequency 128 MHZ
Type RCO Name TERRACE RD Frequency 122.5 MHZ
Type RDO Name PACIFIC RD Frequency 126.7 MHZ
Airport Navaids
Type DME Name Prince Rupert Frequency 109700 KHZ
Type NDB Name Prince Rupert Frequency 218 KHZ
Airport Weather Information & NOTAM
ADDS - METARS form results

(2326 UTC 01 June 2020)
Data provider http://aviationweather.gov/metar/data/
 
METAR text: CYPR 012319Z AUTO 14012G22KT 5SM -RA BR SCT034 OVC042 09/07 A2998 RMK SLP153
Conditions at: CYPR (PRINCE RUPERT AR, BC, CA) observed 2319 UTC 01 June 2020
Temperature: 9.0°C (48°F)
Dewpoint: 7.0°C (45°F) [RH = 87%]
Pressure (altimeter): 29.98 inches Hg (1015.3 mb)
[Sea-level pressure: 1015.3 mb]
Winds: from the SE (140 degrees) at 14 MPH (12 knots; 6.2 m/s)
gusting to 25 MPH (22 knots; 11.3 m/s)
Visibility: 5 miles ( 8 km)
Ceiling: 4200 feet AGL
Clouds: scattered clouds at 3400 feet AGL
overcast cloud deck at 4200 feet AGL
Weather: -RA BR  (light rain, mist)

METAR text: CYPR 012300Z AUTO 14012G20KT 6SM -RA BR FEW025 SCT030 OVC039 09/07 A2998 RMK SLP154
Conditions at: CYPR (PRINCE RUPERT AR, BC, CA) observed 2300 UTC 01 June 2020
Temperature: 9.0°C (48°F)
Dewpoint: 7.0°C (45°F) [RH = 87%]
Pressure (altimeter): 29.98 inches Hg (1015.3 mb)
[Sea-level pressure: 1015.4 mb]
Winds: from the SE (140 degrees) at 14 MPH (12 knots; 6.2 m/s)
gusting to 23 MPH (20 knots; 10.3 m/s)
Visibility: 6 miles (10 km)
Ceiling: 3900 feet AGL
Clouds: few clouds at 2500 feet AGL
scattered clouds at 3000 feet AGL
overcast cloud deck at 3900 feet AGL
Weather: -RA BR  (light rain, mist)

METAR text: CYPR 012259Z AUTO 14013G20KT 6SM -RA BR FEW025 SCT030 OVC039 09/07 A2998 RMK SLP154
Conditions at: CYPR (PRINCE RUPERT AR, BC, CA) observed 2259 UTC 01 June 2020
Temperature: 9.0°C (48°F)
Dewpoint: 7.0°C (45°F) [RH = 87%]
Pressure (altimeter): 29.98 inches Hg (1015.3 mb)
[Sea-level pressure: 1015.4 mb]
Winds: from the SE (140 degrees) at 15 MPH (13 knots; 6.7 m/s)
gusting to 23 MPH (20 knots; 10.3 m/s)
Visibility: 6 miles (10 km)
Ceiling: 3900 feet AGL
Clouds: few clouds at 2500 feet AGL
scattered clouds at 3000 feet AGL
overcast cloud deck at 3900 feet AGL
Weather: -RA BR  (light rain, mist)

METAR text: CYPR 012250Z AUTO 13013G18KT 5SM -RA BR FEW029 SCT035 OVC042 09/07 A2998 RMK SLP154
Conditions at: CYPR (PRINCE RUPERT AR, BC, CA) observed 2250 UTC 01 June 2020
Temperature: 9.0°C (48°F)
Dewpoint: 7.0°C (45°F) [RH = 87%]
Pressure (altimeter): 29.98 inches Hg (1015.3 mb)
[Sea-level pressure: 1015.4 mb]
Winds: from the SE (130 degrees) at 15 MPH (13 knots; 6.7 m/s)
gusting to 21 MPH (18 knots; 9.3 m/s)
Visibility: 5 miles ( 8 km)
Ceiling: 4200 feet AGL
Clouds: few clouds at 2900 feet AGL
scattered clouds at 3500 feet AGL
overcast cloud deck at 4200 feet AGL
Weather: -RA BR  (light rain, mist)

Forecast for: CYPR (PRINCE RUPERT AR, BC, CA)
Text: TAF CYPR 011838Z 0119/0207 15012G22KT P6SM SCT025 OVC040
Forecast period: 1900 to 2100 UTC 01 June 2020
Forecast type: FROM: standard forecast or significant change
Winds: from the SSE (150 degrees) at 14 MPH (12 knots; 6.2 m/s)
gusting to 25 MPH (22 knots; 11.3 m/s)
Visibility: 6 or more miles 10+ km)
Ceiling: 4000 feet AGL
Clouds: scattered clouds at 2500 feet AGL
overcast cloud deck at 4000 feet AGL
Weather: no significant weather forecast for this period
Text: TEMPO 0119/0121 P6SM -SHRA BKN020 OVC040
Forecast period: 1900 to 2100 UTC 01 June 2020
Forecast type: TEMPORARY: The following changes expected for less than half the time period
Visibility: 6 or more miles 10+ km)
Ceiling: 2000 feet AGL
Clouds: broken clouds at 2000 feet AGL
overcast cloud deck at 4000 feet AGL
Weather: -SHRA  (light rain showers)
Text: FM012100 15015G25KT P6SM -RA SCT015 OVC030
Forecast period: 2100 UTC 01 June 2020 to 0700 UTC 02 June 2020
Forecast type: FROM: standard forecast or significant change
Winds: from the SSE (150 degrees) at 17 MPH (15 knots; 7.7 m/s)
gusting to 29 MPH (25 knots; 12.9 m/s)
Visibility: 6 or more miles 10+ km)
Ceiling: 3000 feet AGL
Clouds: scattered clouds at 1500 feet AGL
overcast cloud deck at 3000 feet AGL
Weather: -RA  (light rain)
Text: TEMPO 0121/0207 4SM -RA BR SCT008 BKN015 OVC030 RMK FCST BASED ON AUTO OBS. NXT FCST BY 020100Z
Forecast period: 2100 UTC 01 June 2020 to 0700 UTC 02 June 2020
Forecast type: TEMPORARY: The following changes expected for less than half the time period
Visibility: 4 miles (6 km)
Ceiling: 1500 feet AGL
Clouds: scattered clouds at 800 feet AGL
broken clouds at 1500 feet AGL
overcast cloud deck at 3000 feet AGL
Weather: -RA BR  (light rain, mist)